createdAt,value
2019-05-25T05:02:06.537Z,14.60
2019-05-25T05:04:35.889Z,14.60
2019-05-25T05:07:05.193Z,14.70
2019-05-25T05:09:34.603Z,14.70
2019-05-25T05:12:03.721Z,14.70
2019-05-25T05:14:33.096Z,14.70
2019-05-25T05:17:02.322Z,14.70
2019-05-25T05:19:31.532Z,14.70
2019-05-25T05:22:00.722Z,14.70
2019-05-25T05:24:29.808Z,14.80
2019-05-25T05:26:58.975Z,14.80
2019-05-25T05:29:28.327Z,14.80
2019-05-25T05:31:57.775Z,14.80
2019-05-25T05:34:26.899Z,14.80
2019-05-25T05:36:56.460Z,14.70
2019-05-25T05:39:26.608Z,14.70
2019-05-25T05:41:56.312Z,14.70
2019-05-25T05:44:28.368Z,14.70
2019-05-25T05:46:59.598Z,14.70
2019-05-25T05:49:30.355Z,14.80
2019-05-25T05:52:02.603Z,14.80
2019-05-25T05:54:32.449Z,14.80
2019-05-25T05:57:11.696Z,14.80
2019-05-25T05:59:32.597Z,14.70
2019-05-25T06:02:01.732Z,14.70
2019-05-25T06:04:31.006Z,14.70
2019-05-25T06:07:00.158Z,14.70
2019-05-25T06:09:29.311Z,14.70
2019-05-25T06:11:58.358Z,14.70
2019-05-25T06:14:27.461Z,14.70
2019-05-25T06:16:56.657Z,14.70
2019-05-25T06:19:25.868Z,14.70
2019-05-25T06:21:55.113Z,14.60
2019-05-25T06:24:24.227Z,14.70
2019-05-25T06:26:53.395Z,14.70
2019-05-25T06:29:22.572Z,14.70
2019-05-25T06:31:51.802Z,14.70
2019-05-25T06:34:20.889Z,14.80
2019-05-25T06:36:50.068Z,14.80
2019-05-25T06:39:19.216Z,14.80
2019-05-25T06:41:48.544Z,14.80
2019-05-25T06:44:17.669Z,14.80
2019-05-25T06:46:46.798Z,14.80
2019-05-25T06:49:16.096Z,14.80
2019-05-25T06:51:45.160Z,14.80
2019-05-25T06:54:14.402Z,14.80
2019-05-25T06:56:43.575Z,14.70
2019-05-25T06:59:12.854Z,14.70
2019-05-25T07:01:42.107Z,14.70
2019-05-25T07:04:11.194Z,14.60
2019-05-25T07:06:40.284Z,14.60
2019-05-25T07:09:09.538Z,14.60
2019-05-25T07:11:38.588Z,14.60
2019-05-25T07:14:07.900Z,14.60
2019-05-25T07:16:42.656Z,14.60
2019-05-25T07:19:18.539Z,14.70
2019-05-25T07:21:53.597Z,14.70
2019-05-25T07:24:29.071Z,14.80
2019-05-25T07:27:04.078Z,14.90
2019-05-25T07:29:40.314Z,15.10
2019-05-25T07:32:09.778Z,15.30
2019-05-25T07:34:38.956Z,15.40
2019-05-25T07:37:08.096Z,15.60
2019-05-25T07:39:42.159Z,15.70
2019-05-25T07:42:19.857Z,15.90
2019-05-25T07:44:47.704Z,16.00
2019-05-25T07:47:16.879Z,16.00
2019-05-25T07:49:50.081Z,16.10
2019-05-25T07:52:24.770Z,16.20
2019-05-25T07:54:54.041Z,16.20
2019-05-25T07:57:23.168Z,16.30
2019-05-25T07:59:52.284Z,16.30
2019-05-25T08:02:21.453Z,16.30
2019-05-25T08:04:50.542Z,16.30
2019-05-25T08:07:19.615Z,16.40
2019-05-25T08:09:48.879Z,16.40
2019-05-25T08:12:18.290Z,16.40
2019-05-25T08:14:47.362Z,16.50
2019-05-25T08:17:16.556Z,16.50
2019-05-25T08:19:45.626Z,16.50
2019-05-25T08:22:14.845Z,16.50
2019-05-25T08:24:49.795Z,16.50
2019-05-25T08:27:23.831Z,16.50
2019-05-25T08:29:58.608Z,16.50
2019-05-25T08:32:27.855Z,16.50
2019-05-25T08:34:56.956Z,16.50
2019-05-25T08:37:26.430Z,16.50
2019-05-25T08:40:01.256Z,16.50
2019-05-25T08:42:35.956Z,16.50
2019-05-25T08:45:11.806Z,16.50
2019-05-25T08:47:47.143Z,16.50
2019-05-25T08:50:16.663Z,16.50
2019-05-25T08:52:45.801Z,16.50
2019-05-25T08:55:15.656Z,16.50
2019-05-25T08:57:45.175Z,16.50
2019-05-25T09:00:14.558Z,16.50
2019-05-25T09:02:43.802Z,16.50
2019-05-25T09:05:13.166Z,16.50
2019-05-25T09:07:45.551Z,16.50
2019-05-25T09:10:15.097Z,16.50
2019-05-25T09:12:44.661Z,16.50
2019-05-25T09:15:14.227Z,16.50
2019-05-25T09:17:43.338Z,16.60
2019-05-25T09:20:12.546Z,16.60
2019-05-25T09:22:43.278Z,16.60
2019-05-25T09:25:12.762Z,16.50
2019-05-25T09:27:41.795Z,16.50
2019-05-25T09:30:16.713Z,16.50
2019-05-25T09:32:51.598Z,16.50
2019-05-25T09:35:27.300Z,16.40
2019-05-25T09:38:01.974Z,16.30
2019-05-25T09:40:36.999Z,16.40
2019-05-25T09:43:11.417Z,16.30
2019-05-25T09:45:45.938Z,16.30
2019-05-25T09:48:15.112Z,16.30
2019-05-25T09:50:49.380Z,16.30
2019-05-25T09:53:23.419Z,16.40
2019-05-25T09:55:56.622Z,16.40
2019-05-25T09:58:26.000Z,16.40
2019-05-25T10:00:59.413Z,16.40
2019-05-25T10:03:32.717Z,16.30
2019-05-25T10:06:11.935Z,16.30
2019-05-25T10:08:37.622Z,16.30
2019-05-25T10:11:12.463Z,16.30
2019-05-25T10:13:47.935Z,16.30
2019-05-25T10:16:17.358Z,16.40
2019-05-25T10:18:46.621Z,16.40
2019-05-25T10:21:15.989Z,16.40
2019-05-25T10:23:45.224Z,16.40
2019-05-25T10:26:14.655Z,16.40
2019-05-25T10:28:43.870Z,16.40
2019-05-25T10:31:13.047Z,16.40
2019-05-25T10:33:47.206Z,16.40
2019-05-25T10:36:21.718Z,16.40
2019-05-25T10:38:51.249Z,16.50
2019-05-25T10:41:25.331Z,16.50
2019-05-25T10:43:59.589Z,16.50
2019-05-25T10:46:28.995Z,16.50
2019-05-25T10:48:58.273Z,16.50
2019-05-25T10:51:27.756Z,16.50
2019-05-25T10:53:57.053Z,16.50
2019-05-25T10:56:26.339Z,16.50
2019-05-25T10:58:56.101Z,16.60
2019-05-25T11:01:25.457Z,16.60
2019-05-25T11:03:54.739Z,16.60
2019-05-25T11:06:25.610Z,16.70
2019-05-25T11:08:54.960Z,16.70
2019-05-25T11:11:24.143Z,16.60
2019-05-25T11:13:53.360Z,16.60
2019-05-25T11:16:22.549Z,16.50
2019-05-25T11:18:51.877Z,16.50
2019-05-25T11:21:21.142Z,16.50
2019-05-25T11:23:50.652Z,16.50
2019-05-25T11:26:19.741Z,16.50
2019-05-25T11:28:49.264Z,16.50
2019-05-25T11:31:19.483Z,16.50
2019-05-25T11:33:49.036Z,16.60
2019-05-25T11:36:18.230Z,16.60
2019-05-25T11:38:47.617Z,16.50
2019-05-25T11:41:16.843Z,16.60
2019-05-25T11:43:46.085Z,16.60
2019-05-25T11:46:15.564Z,16.60
2019-05-25T11:48:47.075Z,16.70
2019-05-25T11:51:16.298Z,16.70
2019-05-25T11:53:45.353Z,16.70
2019-05-25T11:56:14.605Z,16.70
2019-05-25T11:58:47.348Z,16.80
2019-05-25T12:01:15.632Z,16.70
2019-05-25T12:03:49.385Z,16.70
2019-05-25T12:06:24.107Z,16.70
2019-05-25T12:08:59.401Z,16.70
2019-05-25T12:11:34.312Z,16.70
2019-05-25T12:14:03.864Z,16.70
2019-05-25T12:16:33.011Z,16.70
2019-05-25T12:19:02.265Z,16.70
2019-05-25T12:21:31.368Z,16.70
2019-05-25T12:24:00.670Z,16.70
2019-05-25T12:26:30.551Z,16.70
2019-05-25T12:28:59.769Z,16.80
2019-05-25T12:31:29.198Z,16.80
2019-05-25T12:34:03.757Z,16.80
2019-05-25T12:36:38.436Z,16.80
2019-05-25T12:39:13.791Z,16.90
2019-05-25T12:41:48.181Z,16.90
2019-05-25T12:44:17.746Z,16.90
2019-05-25T12:46:47.042Z,16.90
2019-05-25T12:49:16.116Z,16.90
2019-05-25T12:51:45.369Z,16.90
2019-05-25T12:54:14.811Z,17.00
2019-05-25T12:56:43.987Z,17.00
2019-05-25T12:59:13.061Z,17.00
2019-05-25T13:01:42.378Z,17.00
2019-05-25T13:04:11.542Z,17.00
2019-05-25T13:06:46.107Z,17.00
2019-05-25T13:09:21.144Z,17.00
2019-05-25T13:11:56.031Z,17.00
2019-05-25T13:14:30.715Z,16.90
2019-05-25T13:17:00.076Z,16.90
2019-05-25T13:19:35.049Z,16.90
2019-05-25T13:22:09.896Z,17.00
2019-05-25T13:24:44.980Z,16.90
2019-05-25T13:27:14.439Z,17.00
2019-05-25T13:29:43.659Z,17.00
2019-05-25T13:32:13.149Z,17.00
2019-05-25T13:34:43.958Z,16.90
2019-05-25T13:37:13.908Z,17.00
2019-05-25T13:39:43.111Z,17.00
2019-05-25T13:42:12.461Z,17.00
2019-05-25T13:44:41.720Z,17.00
2019-05-25T13:47:10.824Z,17.00
2019-05-25T13:49:40.121Z,17.00
2019-05-25T13:52:09.281Z,17.10
2019-05-25T13:54:38.887Z,17.10
2019-05-25T13:57:11.258Z,17.10
2019-05-25T13:59:40.545Z,17.20
2019-05-25T14:02:12.854Z,17.20
2019-05-25T14:04:42.201Z,17.20
2019-05-25T14:07:11.304Z,17.20
2019-05-25T14:09:40.455Z,17.20
2019-05-25T14:12:14.154Z,17.20
2019-05-25T14:16:06.625Z,17.20
2019-05-25T14:21:54.334Z,17.30
2019-05-25T14:24:49.351Z,17.30
2019-05-25T14:27:28.637Z,17.30
2019-05-25T14:30:24.512Z,17.30
2019-05-25T14:32:59.355Z,17.30
2019-05-25T14:35:46.705Z,17.40
2019-05-25T14:38:15.888Z,17.40
2019-05-25T14:40:45.012Z,17.40
2019-05-25T14:43:14.317Z,17.40
2019-05-25T14:45:43.513Z,17.40
2019-05-25T14:48:12.991Z,17.50
2019-05-25T14:50:42.167Z,17.40
2019-05-25T14:53:16.755Z,17.50
2019-05-25T14:55:51.986Z,17.50
2019-05-25T14:58:27.179Z,17.50
2019-05-25T15:01:01.337Z,17.60
2019-05-25T15:03:35.991Z,17.60
2019-05-25T15:06:05.482Z,17.60
2019-05-25T15:08:34.604Z,17.70
2019-05-25T15:11:03.688Z,17.70
2019-05-25T15:13:32.994Z,17.70
2019-05-25T15:16:02.253Z,17.60
2019-05-25T15:18:31.761Z,17.60
2019-05-25T15:21:00.936Z,17.60
2019-05-25T15:23:30.123Z,17.60
2019-05-25T15:26:05.173Z,17.60
2019-05-25T15:28:41.192Z,17.70
2019-05-25T15:31:15.237Z,17.70
2019-05-25T15:33:49.944Z,17.70
2019-05-25T15:36:23.898Z,17.80
2019-05-25T15:38:53.756Z,17.80
2019-05-25T15:41:23.511Z,17.80
2019-05-25T15:43:52.797Z,17.90
2019-05-25T15:46:22.059Z,17.90
2019-05-25T15:48:51.524Z,17.90
2019-05-25T15:51:22.765Z,17.90
2019-05-25T15:53:55.262Z,17.80
2019-05-25T15:56:29.694Z,17.80
2019-05-25T15:59:04.197Z,17.80
2019-05-25T16:01:34.201Z,17.70
2019-05-25T16:04:15.814Z,17.70
2019-05-25T16:07:44.901Z,17.70
2019-05-25T16:10:26.586Z,17.70
2019-05-25T16:12:59.055Z,17.70
2019-05-25T16:15:28.564Z,17.60
2019-05-25T16:18:43.134Z,17.60
2019-05-25T16:21:36.903Z,17.60
2019-05-25T16:24:16.091Z,17.60
2019-05-25T16:26:48.858Z,17.60
2019-05-25T16:29:18.926Z,17.60
2019-05-25T16:32:10.113Z,17.60
2019-05-25T16:34:45.006Z,17.50
2019-05-25T16:37:14.676Z,17.50
2019-05-25T16:39:44.205Z,17.50
2019-05-25T16:42:13.520Z,17.50
2019-05-25T16:44:43.831Z,17.40
2019-05-25T16:47:13.417Z,17.40
2019-05-25T16:49:42.693Z,17.40
2019-05-25T16:52:12.078Z,17.40
2019-05-25T16:55:14.512Z,17.40
2019-05-25T16:57:43.243Z,17.40
2019-05-25T17:00:14.255Z,17.40
2019-05-25T17:02:43.506Z,17.40
2019-05-25T17:05:12.759Z,17.40
2019-05-25T17:08:14.714Z,17.40
2019-05-25T17:10:49.910Z,17.40
2019-05-25T17:13:24.515Z,17.40
2019-05-25T17:16:00.015Z,17.50
2019-05-25T17:18:35.159Z,17.40
2019-05-25T17:21:13.827Z,17.40
2019-05-25T17:23:44.312Z,17.40
2019-05-25T17:26:13.683Z,17.40
2019-05-25T17:28:43.212Z,17.40
2019-05-25T17:31:12.737Z,17.40
2019-05-25T17:33:46.425Z,17.40
2019-05-25T17:36:13.389Z,17.40
2019-05-25T17:38:44.158Z,17.40
2019-05-25T17:41:18.428Z,17.30
2019-05-25T17:43:53.261Z,17.30
